sensor_id;sensor_type;location;lat;lon;timestamp;temperature;humidity
66722;SHT31;53633;49.932;10.884;2022-10-26T00:00:30;8.02;99.45
66722;SHT31;53633;49.932;10.884;2022-10-26T00:02:56;8.23;98.70
66722;SHT31;53633;49.932;10.884;2022-10-26T00:05:23;8.14;98.85
66722;SHT31;53633;49.932;10.884;2022-10-26T00:07:51;8.03;99.17
66722;SHT31;53633;49.932;10.884;2022-10-26T00:10:18;8.04;99.20
66722;SHT31;53633;49.932;10.884;2022-10-26T00:12:47;8.06;99.20
66722;SHT31;53633;49.932;10.884;2022-10-26T00:15:14;8.03;99.42
66722;SHT31;53633;49.932;10.884;2022-10-26T00:17:41;8.20;99.07
66722;SHT31;53633;49.932;10.884;2022-10-26T00:20:08;8.16;99.30
66722;SHT31;53633;49.932;10.884;2022-10-26T00:22:35;8.60;98.39
66722;SHT31;53633;49.932;10.884;2022-10-26T00:25:03;8.95;96.71
66722;SHT31;53633;49.932;10.884;2022-10-26T00:27:30;9.06;95.84
66722;SHT31;53633;49.932;10.884;2022-10-26T00:29:57;9.17;96.03
66722;SHT31;53633;49.932;10.884;2022-10-26T00:32:24;9.24;94.90
66722;SHT31;53633;49.932;10.884;2022-10-26T00:34:50;9.38;94.91
66722;SHT31;53633;49.932;10.884;2022-10-26T00:37:20;8.90;96.04
66722;SHT31;53633;49.932;10.884;2022-10-26T00:39:46;9.16;95.89
66722;SHT31;53633;49.932;10.884;2022-10-26T00:42:18;9.33;95.22
66722;SHT31;53633;49.932;10.884;2022-10-26T00:44:56;9.36;94.98
66722;SHT31;53633;49.932;10.884;2022-10-26T00:47:28;9.26;95.10
66722;SHT31;53633;49.932;10.884;2022-10-26T00:50:01;9.24;95.08
66722;SHT31;53633;49.932;10.884;2022-10-26T00:52:29;9.24;95.46
66722;SHT31;53633;49.932;10.884;2022-10-26T00:54:56;9.15;95.02
66722;SHT31;53633;49.932;10.884;2022-10-26T00:57:24;8.85;95.93
66722;SHT31;53633;49.932;10.884;2022-10-26T00:59:52;8.36;97.84
66722;SHT31;53633;49.932;10.884;2022-10-26T01:02:20;8.44;98.44
66722;SHT31;53633;49.932;10.884;2022-10-26T01:04:49;8.38;98.57
66722;SHT31;53633;49.932;10.884;2022-10-26T01:07:15;8.36;98.42
66722;SHT31;53633;49.932;10.884;2022-10-26T01:09:42;8.17;99.17
66722;SHT31;53633;49.932;10.884;2022-10-26T01:12:09;8.26;99.64
66722;SHT31;53633;49.932;10.884;2022-10-26T01:14:37;8.10;99.62
66722;SHT31;53633;49.932;10.884;2022-10-26T01:17:12;8.14;99.99
66722;SHT31;53633;49.932;10.884;2022-10-26T01:22:56;8.27;99.82
66722;SHT31;53633;49.932;10.884;2022-10-26T01:25:40;8.57;98.85
66722;SHT31;53633;49.932;10.884;2022-10-26T01:28:19;8.51;98.84
66722;SHT31;53633;49.932;10.884;2022-10-26T01:30:56;8.65;98.89
66722;SHT31;53633;49.932;10.884;2022-10-26T01:33:31;8.99;97.94
66722;SHT31;53633;49.932;10.884;2022-10-26T01:36:04;8.96;97.17
66722;SHT31;53633;49.932;10.884;2022-10-26T01:38:41;9.17;97.00
66722;SHT31;53633;49.932;10.884;2022-10-26T01:41:14;9.20;96.33
66722;SHT31;53633;49.932;10.884;2022-10-26T01:43:47;9.10;96.80
66722;SHT31;53633;49.932;10.884;2022-10-26T01:46:17;9.12;97.06
66722;SHT31;53633;49.932;10.884;2022-10-26T01:48:51;9.09;96.82
66722;SHT31;53633;49.932;10.884;2022-10-26T01:51:20;9.15;96.33
66722;SHT31;53633;49.932;10.884;2022-10-26T01:53:47;9.05;96.60
66722;SHT31;53633;49.932;10.884;2022-10-26T01:56:18;9.13;96.47
66722;SHT31;53633;49.932;10.884;2022-10-26T01:59:14;9.24;96.41
66722;SHT31;53633;49.932;10.884;2022-10-26T02:05:06;9.12;96.45
66722;SHT31;53633;49.932;10.884;2022-10-26T02:07:42;9.36;95.58
66722;SHT31;53633;49.932;10.884;2022-10-26T02:10:19;9.23;95.77
66722;SHT31;53633;49.932;10.884;2022-10-26T02:12:58;9.44;95.10
66722;SHT31;53633;49.932;10.884;2022-10-26T02:15:35;9.23;95.71
66722;SHT31;53633;49.932;10.884;2022-10-26T02:18:11;9.28;95.57
66722;SHT31;53633;49.932;10.884;2022-10-26T02:20:42;9.30;95.64
66722;SHT31;53633;49.932;10.884;2022-10-26T02:23:11;9.34;95.60
66722;SHT31;53633;49.932;10.884;2022-10-26T02:25:44;9.58;94.76
66722;SHT31;53633;49.932;10.884;2022-10-26T02:28:14;9.70;94.34
66722;SHT31;53633;49.932;10.884;2022-10-26T02:30:44;9.16;95.98
66722;SHT31;53633;49.932;10.884;2022-10-26T02:33:14;9.33;95.41
66722;SHT31;53633;49.932;10.884;2022-10-26T02:35:42;9.34;95.50
66722;SHT31;53633;49.932;10.884;2022-10-26T02:38:12;9.47;95.43
66722;SHT31;53633;49.932;10.884;2022-10-26T02:40:40;9.38;95.19
66722;SHT31;53633;49.932;10.884;2022-10-26T02:43:12;9.33;95.38
66722;SHT31;53633;49.932;10.884;2022-10-26T02:45:43;9.19;95.84
66722;SHT31;53633;49.932;10.884;2022-10-26T02:48:13;9.19;95.97
66722;SHT31;53633;49.932;10.884;2022-10-26T02:50:44;9.22;95.88
66722;SHT31;53633;49.932;10.884;2022-10-26T02:53:18;9.30;95.87
66722;SHT31;53633;49.932;10.884;2022-10-26T02:55:49;9.31;95.66
66722;SHT31;53633;49.932;10.884;2022-10-26T02:58:19;9.28;95.78
66722;SHT31;53633;49.932;10.884;2022-10-26T03:00:48;9.15;95.95
66722;SHT31;53633;49.932;10.884;2022-10-26T03:03:18;9.37;95.21
66722;SHT31;53633;49.932;10.884;2022-10-26T03:05:44;9.57;94.35
66722;SHT31;53633;49.932;10.884;2022-10-26T03:08:11;9.17;95.74
66722;SHT31;53633;49.932;10.884;2022-10-26T03:10:40;9.17;95.91
66722;SHT31;53633;49.932;10.884;2022-10-26T03:13:07;9.28;95.78
66722;SHT31;53633;49.932;10.884;2022-10-26T03:15:35;9.20;95.87
66722;SHT31;53633;49.932;10.884;2022-10-26T03:18:02;9.27;95.75
66722;SHT31;53633;49.932;10.884;2022-10-26T03:20:31;8.90;96.89
66722;SHT31;53633;49.932;10.884;2022-10-26T03:22:59;8.95;97.30
66722;SHT31;53633;49.932;10.884;2022-10-26T03:25:25;8.96;97.19
66722;SHT31;53633;49.932;10.884;2022-10-26T03:27:56;8.90;97.25
66722;SHT31;53633;49.932;10.884;2022-10-26T03:30:30;8.98;96.98
66722;SHT31;53633;49.932;10.884;2022-10-26T03:33:04;8.89;97.33
66722;SHT31;53633;49.932;10.884;2022-10-26T03:35:32;8.93;97.03
66722;SHT31;53633;49.932;10.884;2022-10-26T03:37:58;8.89;97.10
66722;SHT31;53633;49.932;10.884;2022-10-26T03:40:25;9.22;96.48
66722;SHT31;53633;49.932;10.884;2022-10-26T03:42:52;9.31;95.31
66722;SHT31;53633;49.932;10.884;2022-10-26T03:45:18;9.07;95.72
66722;SHT31;53633;49.932;10.884;2022-10-26T03:47:46;9.26;95.35
66722;SHT31;53633;49.932;10.884;2022-10-26T03:50:15;9.05;95.74
66722;SHT31;53633;49.932;10.884;2022-10-26T03:52:50;8.78;96.20
66722;SHT31;53633;49.932;10.884;2022-10-26T03:55:17;8.76;96.96
66722;SHT31;53633;49.932;10.884;2022-10-26T03:57:51;9.02;96.02
66722;SHT31;53633;49.932;10.884;2022-10-26T04:00:17;9.22;95.43
66722;SHT31;53633;49.932;10.884;2022-10-26T04:02:45;9.24;95.13
66722;SHT31;53633;49.932;10.884;2022-10-26T04:05:18;9.07;95.71
66722;SHT31;53633;49.932;10.884;2022-10-26T04:07:52;9.13;95.75
66722;SHT31;53633;49.932;10.884;2022-10-26T04:10:19;9.44;94.85
66722;SHT31;53633;49.932;10.884;2022-10-26T04:12:46;9.55;94.55
66722;SHT31;53633;49.932;10.884;2022-10-26T04:15:13;9.52;94.82
66722;SHT31;53633;49.932;10.884;2022-10-26T04:17:40;9.62;94.65
66722;SHT31;53633;49.932;10.884;2022-10-26T04:20:08;9.59;94.70
66722;SHT31;53633;49.932;10.884;2022-10-26T04:22:35;9.55;94.89
66722;SHT31;53633;49.932;10.884;2022-10-26T04:25:03;9.54;95.24
66722;SHT31;53633;49.932;10.884;2022-10-26T04:27:30;9.57;95.03
66722;SHT31;53633;49.932;10.884;2022-10-26T04:29:57;9.74;94.60
66722;SHT31;53633;49.932;10.884;2022-10-26T04:32:23;9.88;94.33
66722;SHT31;53633;49.932;10.884;2022-10-26T04:34:57;9.72;94.58
66722;SHT31;53633;49.932;10.884;2022-10-26T04:37:23;9.72;94.90
66722;SHT31;53633;49.932;10.884;2022-10-26T04:39:50;9.72;94.41
66722;SHT31;53633;49.932;10.884;2022-10-26T04:42:18;9.72;94.69
66722;SHT31;53633;49.932;10.884;2022-10-26T04:44:45;9.62;94.99
66722;SHT31;53633;49.932;10.884;2022-10-26T04:47:11;9.51;95.28
66722;SHT31;53633;49.932;10.884;2022-10-26T04:49:38;9.50;95.77
66722;SHT31;53633;49.932;10.884;2022-10-26T04:52:05;9.47;95.65
66722;SHT31;53633;49.932;10.884;2022-10-26T04:54:31;9.79;94.43
66722;SHT31;53633;49.932;10.884;2022-10-26T04:56:58;9.70;94.95
66722;SHT31;53633;49.932;10.884;2022-10-26T04:59:26;9.71;94.88
66722;SHT31;53633;49.932;10.884;2022-10-26T05:01:53;9.72;94.93
66722;SHT31;53633;49.932;10.884;2022-10-26T05:04:20;9.78;94.86
66722;SHT31;53633;49.932;10.884;2022-10-26T05:06:47;9.85;94.35
66722;SHT31;53633;49.932;10.884;2022-10-26T05:09:14;9.79;94.77
66722;SHT31;53633;49.932;10.884;2022-10-26T05:11:40;9.85;94.70
66722;SHT31;53633;49.932;10.884;2022-10-26T05:14:07;10.05;93.76
66722;SHT31;53633;49.932;10.884;2022-10-26T05:16:35;9.79;94.61
66722;SHT31;53633;49.932;10.884;2022-10-26T05:19:02;9.98;94.43
66722;SHT31;53633;49.932;10.884;2022-10-26T05:21:29;9.88;94.40
66722;SHT31;53633;49.932;10.884;2022-10-26T05:23:58;9.88;94.57
66722;SHT31;53633;49.932;10.884;2022-10-26T05:26:25;9.82;94.72
66722;SHT31;53633;49.932;10.884;2022-10-26T05:28:51;9.72;94.83
66722;SHT31;53633;49.932;10.884;2022-10-26T05:31:18;9.52;95.90
66722;SHT31;53633;49.932;10.884;2022-10-26T05:33:48;9.48;96.31
66722;SHT31;53633;49.932;10.884;2022-10-26T05:36:15;9.86;94.93
66722;SHT31;53633;49.932;10.884;2022-10-26T05:38:42;9.91;94.75
66722;SHT31;53633;49.932;10.884;2022-10-26T05:41:09;10.10;94.19
66722;SHT31;53633;49.932;10.884;2022-10-26T05:43:35;9.78;94.90
66722;SHT31;53633;49.932;10.884;2022-10-26T05:46:02;9.75;95.51
66722;SHT31;53633;49.932;10.884;2022-10-26T05:48:29;9.50;96.67
66722;SHT31;53633;49.932;10.884;2022-10-26T05:50:59;9.78;95.49
66722;SHT31;53633;49.932;10.884;2022-10-26T05:53:25;9.38;96.98
66722;SHT31;53633;49.932;10.884;2022-10-26T05:55:53;9.50;96.64
66722;SHT31;53633;49.932;10.884;2022-10-26T05:58:20;9.52;96.84
66722;SHT31;53633;49.932;10.884;2022-10-26T06:00:56;9.68;96.18
66722;SHT31;53633;49.932;10.884;2022-10-26T06:03:40;9.58;96.20
66722;SHT31;53633;49.932;10.884;2022-10-26T06:09:44;9.38;97.30
66722;SHT31;53633;49.932;10.884;2022-10-26T06:12:13;9.34;97.46
66722;SHT31;53633;49.932;10.884;2022-10-26T06:14:45;9.41;97.38
66722;SHT31;53633;49.932;10.884;2022-10-26T06:17:24;9.40;97.34
66722;SHT31;53633;49.932;10.884;2022-10-26T06:20:01;9.37;97.40
66722;SHT31;53633;49.932;10.884;2022-10-26T06:22:40;9.52;97.02
66722;SHT31;53633;49.932;10.884;2022-10-26T06:25:19;9.55;97.00
66722;SHT31;53633;49.932;10.884;2022-10-26T06:28:01;9.47;97.22
66722;SHT31;53633;49.932;10.884;2022-10-26T06:30:30;9.50;97.14
66722;SHT31;53633;49.932;10.884;2022-10-26T06:32:57;9.55;97.16
66722;SHT31;53633;49.932;10.884;2022-10-26T06:35:45;9.47;96.95
66722;SHT31;53633;49.932;10.884;2022-10-26T06:38:15;9.68;96.58
66722;SHT31;53633;49.932;10.884;2022-10-26T06:40:45;9.51;97.29
66722;SHT31;53633;49.932;10.884;2022-10-26T06:43:21;9.44;97.65
66722;SHT31;53633;49.932;10.884;2022-10-26T06:45:59;9.51;97.67
66722;SHT31;53633;49.932;10.884;2022-10-26T06:48:28;9.47;97.84
66722;SHT31;53633;49.932;10.884;2022-10-26T06:50:56;9.54;98.10
66722;SHT31;53633;49.932;10.884;2022-10-26T06:53:30;9.70;97.62
66722;SHT31;53633;49.932;10.884;2022-10-26T06:56:01;9.72;97.56
66722;SHT31;53633;49.932;10.884;2022-10-26T06:58:31;9.88;96.86
66722;SHT31;53633;49.932;10.884;2022-10-26T07:00:59;10.08;96.69
66722;SHT31;53633;49.932;10.884;2022-10-26T07:03:26;10.26;96.42
66722;SHT31;53633;49.932;10.884;2022-10-26T07:05:53;10.44;95.55
66722;SHT31;53633;49.932;10.884;2022-10-26T07:08:20;10.50;94.95
66722;SHT31;53633;49.932;10.884;2022-10-26T07:10:49;10.67;94.67
66722;SHT31;53633;49.932;10.884;2022-10-26T07:13:17;10.78;93.18
66722;SHT31;53633;49.932;10.884;2022-10-26T07:15:44;10.85;93.29
66722;SHT31;53633;49.932;10.884;2022-10-26T07:18:11;10.94;92.76
66722;SHT31;53633;49.932;10.884;2022-10-26T07:20:39;10.84;93.38
66722;SHT31;53633;49.932;10.884;2022-10-26T07:23:07;10.96;93.82
66722;SHT31;53633;49.932;10.884;2022-10-26T07:25:34;11.32;91.45
66722;SHT31;53633;49.932;10.884;2022-10-26T07:28:01;11.57;91.15
66722;SHT31;53633;49.932;10.884;2022-10-26T07:30:29;11.23;92.30
66722;SHT31;53633;49.932;10.884;2022-10-26T07:33:00;11.44;92.20
66722;SHT31;53633;49.932;10.884;2022-10-26T07:35:26;11.49;92.03
66722;SHT31;53633;49.932;10.884;2022-10-26T07:37:57;11.32;92.14
66722;SHT31;53633;49.932;10.884;2022-10-26T07:40:24;11.56;91.61
66722;SHT31;53633;49.932;10.884;2022-10-26T07:42:51;11.49;91.91
66722;SHT31;53633;49.932;10.884;2022-10-26T07:45:18;11.66;92.17
66722;SHT31;53633;49.932;10.884;2022-10-26T07:47:48;11.64;91.88
66722;SHT31;53633;49.932;10.884;2022-10-26T07:50:15;11.71;91.72
66722;SHT31;53633;49.932;10.884;2022-10-26T07:52:42;11.39;93.37
66722;SHT31;53633;49.932;10.884;2022-10-26T07:55:09;11.34;93.04
66722;SHT31;53633;49.932;10.884;2022-10-26T07:57:36;11.43;93.05
66722;SHT31;53633;49.932;10.884;2022-10-26T08:00:05;11.66;92.07
66722;SHT31;53633;49.932;10.884;2022-10-26T08:02:35;11.80;91.38
66722;SHT31;53633;49.932;10.884;2022-10-26T08:05:04;11.77;91.58
66722;SHT31;53633;49.932;10.884;2022-10-26T08:07:30;11.84;91.32
66722;SHT31;53633;49.932;10.884;2022-10-26T08:09:57;11.97;91.04
66722;SHT31;53633;49.932;10.884;2022-10-26T08:12:24;12.04;90.80
66722;SHT31;53633;49.932;10.884;2022-10-26T08:14:50;12.06;90.76
66722;SHT31;53633;49.932;10.884;2022-10-26T08:17:17;12.04;91.15
66722;SHT31;53633;49.932;10.884;2022-10-26T08:19:46;11.64;92.82
66722;SHT31;53633;49.932;10.884;2022-10-26T08:22:14;11.81;92.83
66722;SHT31;53633;49.932;10.884;2022-10-26T08:24:41;11.92;92.60
66722;SHT31;53633;49.932;10.884;2022-10-26T08:27:07;11.97;92.66
66722;SHT31;53633;49.932;10.884;2022-10-26T08:29:34;12.25;90.92
66722;SHT31;53633;49.932;10.884;2022-10-26T08:32:01;12.32;91.36
66722;SHT31;53633;49.932;10.884;2022-10-26T08:34:28;12.60;90.18
66722;SHT31;53633;49.932;10.884;2022-10-26T08:36:54;12.79;89.51
66722;SHT31;53633;49.932;10.884;2022-10-26T08:39:22;12.61;90.55
66722;SHT31;53633;49.932;10.884;2022-10-26T08:41:53;12.59;90.91
66722;SHT31;53633;49.932;10.884;2022-10-26T08:44:25;12.90;89.20
66722;SHT31;53633;49.932;10.884;2022-10-26T08:46:57;13.05;88.51
66722;SHT31;53633;49.932;10.884;2022-10-26T08:49:27;13.14;88.55
66722;SHT31;53633;49.932;10.884;2022-10-26T08:51:57;13.28;87.94
66722;SHT31;53633;49.932;10.884;2022-10-26T08:54:34;13.34;88.51
66722;SHT31;53633;49.932;10.884;2022-10-26T08:57:07;13.38;88.90
66722;SHT31;53633;49.932;10.884;2022-10-26T08:59:39;13.39;88.66
66722;SHT31;53633;49.932;10.884;2022-10-26T09:02:11;13.67;87.53
66722;SHT31;53633;49.932;10.884;2022-10-26T09:04:38;13.74;88.32
66722;SHT31;53633;49.932;10.884;2022-10-26T09:07:13;13.78;87.52
66722;SHT31;53633;49.932;10.884;2022-10-26T09:09:47;13.76;87.67
66722;SHT31;53633;49.932;10.884;2022-10-26T09:12:27;13.84;86.95
66722;SHT31;53633;49.932;10.884;2022-10-26T09:15:11;13.93;86.92
66722;SHT31;53633;49.932;10.884;2022-10-26T09:17:45;13.98;87.62
66722;SHT31;53633;49.932;10.884;2022-10-26T09:20:34;14.00;87.21
66722;SHT31;53633;49.932;10.884;2022-10-26T09:23:13;13.98;88.01
66722;SHT31;53633;49.932;10.884;2022-10-26T09:25:57;14.03;87.57
66722;SHT31;53633;49.932;10.884;2022-10-26T09:28:26;13.83;88.27
66722;SHT31;53633;49.932;10.884;2022-10-26T09:30:57;13.86;87.98
66722;SHT31;53633;49.932;10.884;2022-10-26T09:33:27;13.83;88.61
66722;SHT31;53633;49.932;10.884;2022-10-26T09:35:57;13.77;88.58
66722;SHT31;53633;49.932;10.884;2022-10-26T09:38:28;13.80;88.40
66722;SHT31;53633;49.932;10.884;2022-10-26T09:41:00;13.90;88.34
66722;SHT31;53633;49.932;10.884;2022-10-26T09:43:32;14.01;88.51
66722;SHT31;53633;49.932;10.884;2022-10-26T09:46:02;14.10;87.69
66722;SHT31;53633;49.932;10.884;2022-10-26T09:48:33;14.07;88.00
66722;SHT31;53633;49.932;10.884;2022-10-26T09:51:01;14.13;87.84
66722;SHT31;53633;49.932;10.884;2022-10-26T09:53:30;14.07;88.63
66722;SHT31;53633;49.932;10.884;2022-10-26T09:56:03;14.10;88.16
66722;SHT31;53633;49.932;10.884;2022-10-26T09:58:33;14.14;89.00
66722;SHT31;53633;49.932;10.884;2022-10-26T10:01:01;14.11;88.82
66722;SHT31;53633;49.932;10.884;2022-10-26T10:03:29;14.08;89.25
66722;SHT31;53633;49.932;10.884;2022-10-26T10:06:14;14.14;89.10
66722;SHT31;53633;49.932;10.884;2022-10-26T10:08:42;14.25;88.70
66722;SHT31;53633;49.932;10.884;2022-10-26T10:11:11;14.52;88.39
66722;SHT31;53633;49.932;10.884;2022-10-26T10:13:39;14.81;87.78
66722;SHT31;53633;49.932;10.884;2022-10-26T10:16:10;15.08;86.98
66722;SHT31;53633;49.932;10.884;2022-10-26T10:18:38;15.30;86.08
66722;SHT31;53633;49.932;10.884;2022-10-26T10:21:06;15.49;85.29
66722;SHT31;53633;49.932;10.884;2022-10-26T10:23:34;15.70;84.90
66722;SHT31;53633;49.932;10.884;2022-10-26T10:26:13;15.81;85.07
66722;SHT31;53633;49.932;10.884;2022-10-26T10:28:40;15.89;83.89
66722;SHT31;53633;49.932;10.884;2022-10-26T10:31:18;15.99;83.35
66722;SHT31;53633;49.932;10.884;2022-10-26T10:33:46;16.06;82.39
66722;SHT31;53633;49.932;10.884;2022-10-26T10:36:15;16.30;82.03
66722;SHT31;53633;49.932;10.884;2022-10-26T10:38:45;16.61;81.29
66722;SHT31;53633;49.932;10.884;2022-10-26T10:41:18;16.57;81.02
66722;SHT31;53633;49.932;10.884;2022-10-26T10:43:48;16.65;80.82
66722;SHT31;53633;49.932;10.884;2022-10-26T10:46:20;16.71;80.96
66722;SHT31;53633;49.932;10.884;2022-10-26T10:48:52;16.79;80.50
66722;SHT31;53633;49.932;10.884;2022-10-26T10:51:21;16.83;80.21
66722;SHT31;53633;49.932;10.884;2022-10-26T10:53:51;16.83;80.02
66722;SHT31;53633;49.932;10.884;2022-10-26T10:56:40;16.85;79.95
66722;SHT31;53633;49.932;10.884;2022-10-26T11:02:54;16.93;79.86
66722;SHT31;53633;49.932;10.884;2022-10-26T11:05:32;16.89;78.94
66722;SHT31;53633;49.932;10.884;2022-10-26T11:08:03;17.04;79.93
66722;SHT31;53633;49.932;10.884;2022-10-26T11:10:34;16.93;79.20
66722;SHT31;53633;49.932;10.884;2022-10-26T11:13:08;17.09;79.30
66722;SHT31;53633;49.932;10.884;2022-10-26T11:15:36;17.27;78.86
66722;SHT31;53633;49.932;10.884;2022-10-26T11:18:11;17.28;78.18
66722;SHT31;53633;49.932;10.884;2022-10-26T11:20:43;17.41;78.41
66722;SHT31;53633;49.932;10.884;2022-10-26T11:23:15;17.51;78.54
66722;SHT31;53633;49.932;10.884;2022-10-26T11:25:47;17.44;78.38
66722;SHT31;53633;49.932;10.884;2022-10-26T11:28:24;17.51;78.21
66722;SHT31;53633;49.932;10.884;2022-10-26T11:31:00;17.54;78.12
66722;SHT31;53633;49.932;10.884;2022-10-26T11:33:31;17.60;78.31
66722;SHT31;53633;49.932;10.884;2022-10-26T11:36:03;17.71;77.90
66722;SHT31;53633;49.932;10.884;2022-10-26T11:38:35;17.69;78.24
66722;SHT31;53633;49.932;10.884;2022-10-26T11:41:21;17.69;77.91
66722;SHT31;53633;49.932;10.884;2022-10-26T11:43:55;17.71;77.90
66722;SHT31;53633;49.932;10.884;2022-10-26T11:46:27;17.58;77.94
66722;SHT31;53633;49.932;10.884;2022-10-26T11:48:59;17.57;78.18
66722;SHT31;53633;49.932;10.884;2022-10-26T11:51:35;17.42;77.94
66722;SHT31;53633;49.932;10.884;2022-10-26T11:54:09;17.33;77.82
66722;SHT31;53633;49.932;10.884;2022-10-26T11:56:40;17.54;78.45
66722;SHT31;53633;49.932;10.884;2022-10-26T11:59:17;17.58;78.00
66722;SHT31;53633;49.932;10.884;2022-10-26T12:01:46;17.57;77.96
66722;SHT31;53633;49.932;10.884;2022-10-26T12:04:13;17.48;77.70
66722;SHT31;53633;49.932;10.884;2022-10-26T12:06:42;17.42;78.34
66722;SHT31;53633;49.932;10.884;2022-10-26T12:09:14;17.47;78.21
66722;SHT31;53633;49.932;10.884;2022-10-26T12:11:45;17.42;77.91
66722;SHT31;53633;49.932;10.884;2022-10-26T12:14:19;17.50;78.28
66722;SHT31;53633;49.932;10.884;2022-10-26T12:16:56;17.38;78.94
66722;SHT31;53633;49.932;10.884;2022-10-26T12:19:28;17.34;78.56
66722;SHT31;53633;49.932;10.884;2022-10-26T12:21:57;17.38;78.75
66722;SHT31;53633;49.932;10.884;2022-10-26T12:24:29;17.42;79.18
66722;SHT31;53633;49.932;10.884;2022-10-26T12:26:57;17.35;78.74
66722;SHT31;53633;49.932;10.884;2022-10-26T12:29:32;17.30;79.32
66722;SHT31;53633;49.932;10.884;2022-10-26T12:31:59;17.20;79.14
66722;SHT31;53633;49.932;10.884;2022-10-26T12:34:57;17.20;80.11
66722;SHT31;53633;49.932;10.884;2022-10-26T12:37:30;17.24;79.81
66722;SHT31;53633;49.932;10.884;2022-10-26T12:42:57;17.24;79.56
66722;SHT31;53633;49.932;10.884;2022-10-26T12:45:46;17.27;80.08
66722;SHT31;53633;49.932;10.884;2022-10-26T12:48:39;17.24;80.45
66722;SHT31;53633;49.932;10.884;2022-10-26T12:51:42;17.24;80.60
66722;SHT31;53633;49.932;10.884;2022-10-26T12:54:23;17.17;81.07
66722;SHT31;53633;49.932;10.884;2022-10-26T12:56:57;17.16;80.61
66722;SHT31;53633;49.932;10.884;2022-10-26T12:59:31;17.16;81.46
66722;SHT31;53633;49.932;10.884;2022-10-26T13:05:36;17.34;80.42
66722;SHT31;53633;49.932;10.884;2022-10-26T13:08:14;17.48;79.90
66722;SHT31;53633;49.932;10.884;2022-10-26T13:10:58;17.61;80.45
66722;SHT31;53633;49.932;10.884;2022-10-26T13:13:28;17.72;79.10
66722;SHT31;53633;49.932;10.884;2022-10-26T13:15:58;17.79;79.22
66722;SHT31;53633;49.932;10.884;2022-10-26T13:18:28;17.74;79.34
66722;SHT31;53633;49.932;10.884;2022-10-26T13:21:02;17.68;79.33
66722;SHT31;53633;49.932;10.884;2022-10-26T13:23:32;17.67;79.90
66722;SHT31;53633;49.932;10.884;2022-10-26T13:26:06;17.67;80.06
66722;SHT31;53633;49.932;10.884;2022-10-26T13:28:48;17.57;80.59
66722;SHT31;53633;49.932;10.884;2022-10-26T13:34:20;17.42;81.14
66722;SHT31;53633;49.932;10.884;2022-10-26T13:36:50;17.47;81.31
66722;SHT31;53633;49.932;10.884;2022-10-26T13:39:20;17.47;81.10
66722;SHT31;53633;49.932;10.884;2022-10-26T13:41:51;17.42;81.47
66722;SHT31;53633;49.932;10.884;2022-10-26T13:44:22;17.42;81.87
66722;SHT31;53633;49.932;10.884;2022-10-26T13:46:55;17.51;81.15
66722;SHT31;53633;49.932;10.884;2022-10-26T13:49:27;17.47;81.12
66722;SHT31;53633;49.932;10.884;2022-10-26T13:51:59;17.55;81.11
66722;SHT31;53633;49.932;10.884;2022-10-26T13:54:31;17.45;81.68
66722;SHT31;53633;49.932;10.884;2022-10-26T13:57:12;17.51;81.51
66722;SHT31;53633;49.932;10.884;2022-10-26T13:59:42;17.45;81.41
66722;SHT31;53633;49.932;10.884;2022-10-26T14:02:17;17.47;82.04
66722;SHT31;53633;49.932;10.884;2022-10-26T14:04:53;17.54;81.42
66722;SHT31;53633;49.932;10.884;2022-10-26T14:07:30;17.52;81.84
66722;SHT31;53633;49.932;10.884;2022-10-26T14:09:59;17.51;81.99
66722;SHT31;53633;49.932;10.884;2022-10-26T14:12:26;17.45;82.44
66722;SHT31;53633;49.932;10.884;2022-10-26T14:15:02;17.42;82.03
66722;SHT31;53633;49.932;10.884;2022-10-26T14:17:31;17.41;82.14
66722;SHT31;53633;49.932;10.884;2022-10-26T14:20:00;17.42;82.37
66722;SHT31;53633;49.932;10.884;2022-10-26T14:22:28;17.44;82.23
66722;SHT31;53633;49.932;10.884;2022-10-26T14:24:57;17.31;82.36
66722;SHT31;53633;49.932;10.884;2022-10-26T14:27:25;17.35;81.75
66722;SHT31;53633;49.932;10.884;2022-10-26T14:29:53;17.35;81.66
66722;SHT31;53633;49.932;10.884;2022-10-26T14:32:40;17.19;82.61
66722;SHT31;53633;49.932;10.884;2022-10-26T14:35:12;17.24;82.00
66722;SHT31;53633;49.932;10.884;2022-10-26T14:37:44;17.22;82.41
66722;SHT31;53633;49.932;10.884;2022-10-26T14:40:15;17.22;81.99
66722;SHT31;53633;49.932;10.884;2022-10-26T14:42:46;17.16;82.29
66722;SHT31;53633;49.932;10.884;2022-10-26T14:45:27;17.03;83.12
66722;SHT31;53633;49.932;10.884;2022-10-26T14:48:20;17.02;83.22
66722;SHT31;53633;49.932;10.884;2022-10-26T14:51:00;16.85;84.15
66722;SHT31;53633;49.932;10.884;2022-10-26T14:53:31;16.82;84.16
66722;SHT31;53633;49.932;10.884;2022-10-26T14:55:58;16.86;84.02
66722;SHT31;53633;49.932;10.884;2022-10-26T14:58:28;16.79;84.65
66722;SHT31;53633;49.932;10.884;2022-10-26T15:01:28;16.86;84.31
66722;SHT31;53633;49.932;10.884;2022-10-26T15:04:02;16.90;84.57
66722;SHT31;53633;49.932;10.884;2022-10-26T15:06:38;16.95;85.22
66722;SHT31;53633;49.932;10.884;2022-10-26T15:09:05;16.87;85.45
66722;SHT31;53633;49.932;10.884;2022-10-26T15:11:32;16.83;85.60
66722;SHT31;53633;49.932;10.884;2022-10-26T15:14:00;16.82;85.87
66722;SHT31;53633;49.932;10.884;2022-10-26T15:16:29;16.71;85.99
66722;SHT31;53633;49.932;10.884;2022-10-26T15:18:58;16.68;86.08
66722;SHT31;53633;49.932;10.884;2022-10-26T15:21:29;16.64;86.12
66722;SHT31;53633;49.932;10.884;2022-10-26T15:23:57;16.61;86.14
66722;SHT31;53633;49.932;10.884;2022-10-26T15:26:25;16.58;86.34
66722;SHT31;53633;49.932;10.884;2022-10-26T15:28:53;16.54;86.60
66722;SHT31;53633;49.932;10.884;2022-10-26T15:31:31;16.57;86.74
66722;SHT31;53633;49.932;10.884;2022-10-26T15:34:15;16.62;86.77
66722;SHT31;53633;49.932;10.884;2022-10-26T15:36:44;16.57;87.08
66722;SHT31;53633;49.932;10.884;2022-10-26T15:39:12;16.55;87.33
66722;SHT31;53633;49.932;10.884;2022-10-26T15:41:44;16.48;87.57
66722;SHT31;53633;49.932;10.884;2022-10-26T15:44:13;16.55;87.50
66722;SHT31;53633;49.932;10.884;2022-10-26T15:46:42;16.62;87.23
66722;SHT31;53633;49.932;10.884;2022-10-26T15:49:16;16.62;87.24
66722;SHT31;53633;49.932;10.884;2022-10-26T15:51:44;16.54;87.47
66722;SHT31;53633;49.932;10.884;2022-10-26T15:54:13;16.54;87.50
66722;SHT31;53633;49.932;10.884;2022-10-26T15:56:41;16.48;87.60
66722;SHT31;53633;49.932;10.884;2022-10-26T15:59:13;16.38;88.48
66722;SHT31;53633;49.932;10.884;2022-10-26T16:01:41;16.40;88.40
66722;SHT31;53633;49.932;10.884;2022-10-26T16:04:08;16.38;88.35
66722;SHT31;53633;49.932;10.884;2022-10-26T16:06:35;16.38;88.36
66722;SHT31;53633;49.932;10.884;2022-10-26T16:09:05;16.34;88.50